createdAt,value
2022-11-12T00:01:09.953Z,10.50
2022-11-12T00:07:30.500Z,10.60
2022-11-12T00:13:51.369Z,10.60
2022-11-12T00:20:13.089Z,10.50
2022-11-12T00:26:33.837Z,10.50
2022-11-12T00:32:54.886Z,10.50
2022-11-12T00:39:15.559Z,10.40
2022-11-12T00:45:36.312Z,10.40
2022-11-12T00:51:57.230Z,10.40
2022-11-12T00:58:18.273Z,10.40
2022-11-12T01:04:39.278Z,10.40
2022-11-12T01:11:10.536Z,10.40
2022-11-12T01:17:31.813Z,10.40
2022-11-12T01:23:52.574Z,10.30
2022-11-12T01:30:13.716Z,10.30
2022-11-12T01:36:37.656Z,10.20
2022-11-12T01:42:58.557Z,10.10
2022-11-12T01:49:28.873Z,10.10
2022-11-12T01:55:50.047Z,10.10
2022-11-12T02:02:11.157Z,10.10
2022-11-12T02:08:33.659Z,10.20
2022-11-12T02:14:54.644Z,10.10
2022-11-12T02:21:19.983Z,10.00
2022-11-12T02:27:40.663Z,10.00
2022-11-12T02:34:01.619Z,9.90
2022-11-12T02:40:22.719Z,9.60
2022-11-12T02:46:43.537Z,9.60
2022-11-12T02:53:04.511Z,9.60
2022-11-12T02:59:25.432Z,9.60
2022-11-12T03:05:47.119Z,9.60
2022-11-12T03:12:08.083Z,9.50
2022-11-12T03:18:29.143Z,9.40
2022-11-12T03:24:50.372Z,9.20
2022-11-12T03:31:12.231Z,9.00
2022-11-12T03:37:33.042Z,8.90
2022-11-12T03:43:53.506Z,8.90
2022-11-12T03:50:15.621Z,8.70
2022-11-12T03:56:36.722Z,8.50
2022-11-12T04:02:58.246Z,8.30
2022-11-12T04:09:19.105Z,8.20
2022-11-12T04:15:40.134Z,8.00
2022-11-12T04:22:09.861Z,7.90
2022-11-12T04:28:30.480Z,7.80
2022-11-12T04:34:51.690Z,7.70
2022-11-12T04:41:31.026Z,7.60
2022-11-12T04:47:52.032Z,7.60
2022-11-12T04:54:12.886Z,7.60
2022-11-12T05:00:33.323Z,7.50
2022-11-12T05:06:56.032Z,7.40
2022-11-12T05:13:16.801Z,7.40
2022-11-12T05:19:37.716Z,7.40
2022-11-12T05:25:58.474Z,7.50
2022-11-12T05:32:19.438Z,7.60
2022-11-12T05:38:40.388Z,7.80
2022-11-12T05:45:01.332Z,7.90
2022-11-12T05:51:22.376Z,8.10
2022-11-12T05:57:43.205Z,8.30
2022-11-12T06:04:04.523Z,9.40
2022-11-12T06:10:25.443Z,11.30
2022-11-12T06:16:46.382Z,11.20
2022-11-12T06:23:07.325Z,12.80
2022-11-12T06:29:28.486Z,12.00
2022-11-12T06:36:03.359Z,12.80
2022-11-12T06:42:24.299Z,15.20
2022-11-12T06:48:45.465Z,13.40
2022-11-12T06:55:06.659Z,12.50
2022-11-12T07:01:27.640Z,12.10
2022-11-12T07:07:48.499Z,12.30
2022-11-12T07:14:09.497Z,15.20
2022-11-12T07:20:30.639Z,20.70
2022-11-12T07:26:51.073Z,23.10
2022-11-12T07:33:11.943Z,24.20
2022-11-12T07:39:32.700Z,24.00
2022-11-12T07:45:54.034Z,23.90
2022-11-12T07:52:14.916Z,22.90
2022-11-12T07:58:35.699Z,21.00
2022-11-12T08:04:56.489Z,19.20
2022-11-12T08:11:17.453Z,16.70
2022-11-12T08:17:40.982Z,16.70
2022-11-12T08:24:01.918Z,18.00
2022-11-12T08:30:22.739Z,19.70
2022-11-12T08:36:43.643Z,20.10
2022-11-12T08:43:09.761Z,19.40
2022-11-12T08:49:31.154Z,18.60
2022-11-12T08:55:56.535Z,17.20
2022-11-12T09:02:17.065Z,16.60
2022-11-12T09:08:38.321Z,16.00
2022-11-12T09:15:09.694Z,15.60
2022-11-12T09:21:39.586Z,16.00
2022-11-12T09:28:16.629Z,15.70
2022-11-12T09:34:37.321Z,15.60
2022-11-12T09:41:27.340Z,15.60
2022-11-12T09:47:58.037Z,15.60
2022-11-12T09:54:21.958Z,15.80
2022-11-12T10:00:49.716Z,15.70
2022-11-12T10:07:22.451Z,15.70
2022-11-12T10:14:15.345Z,16.10
2022-11-12T10:20:55.164Z,16.30
2022-11-12T10:27:19.808Z,16.40
2022-11-12T10:33:40.437Z,16.80
2022-11-12T10:40:21.153Z,16.80
2022-11-12T10:46:42.064Z,17.10
2022-11-12T10:53:06.082Z,17.20
2022-11-12T10:59:26.890Z,17.60
2022-11-12T11:05:52.645Z,17.80
2022-11-12T11:12:27.628Z,18.10
2022-11-12T11:19:02.593Z,18.20
2022-11-12T11:25:30.029Z,18.40
2022-11-12T11:32:11.494Z,20.60
2022-11-12T11:38:42.109Z,25.80
2022-11-12T11:45:24.706Z,26.50
2022-11-12T11:51:45.375Z,24.50
2022-11-12T11:58:24.423Z,19.80
2022-11-12T12:04:45.143Z,17.80
2022-11-12T12:11:14.347Z,17.00
2022-11-12T12:17:40.981Z,16.50
2022-11-12T12:24:03.833Z,16.00
2022-11-12T12:36:52.378Z,15.60
2022-11-12T12:43:23.130Z,15.50
2022-11-12T12:49:46.285Z,15.40
2022-11-12T12:56:23.878Z,15.30
2022-11-12T13:02:46.424Z,15.20
2022-11-12T13:09:24.784Z,15.10
2022-11-12T13:15:56.247Z,14.90
2022-11-12T13:22:20.118Z,14.80
2022-11-12T13:29:19.556Z,14.50
2022-11-12T13:35:40.941Z,14.40
2022-11-12T13:42:27.807Z,14.20
2022-11-12T13:48:59.819Z,14.30
2022-11-12T13:55:22.821Z,14.10
2022-11-12T14:01:44.458Z,14.00
2022-11-12T14:08:39.160Z,13.90
2022-11-12T14:15:05.974Z,13.80
2022-11-12T14:21:26.924Z,13.70
2022-11-12T14:27:50.481Z,13.60
2022-11-12T14:34:22.344Z,13.30
2022-11-12T14:40:50.772Z,13.10
2022-11-12T14:47:11.789Z,12.80
2022-11-12T14:53:42.401Z,12.80
2022-11-12T15:00:22.185Z,12.80
2022-11-12T15:06:43.072Z,12.70
2022-11-12T15:13:15.056Z,12.50
2022-11-12T15:19:36.001Z,12.20
2022-11-12T15:26:00.926Z,11.90
2022-11-12T15:32:21.583Z,11.80
2022-11-12T15:38:48.925Z,11.60
2022-11-12T15:45:19.985Z,11.50
2022-11-12T15:51:40.376Z,11.40
2022-11-12T15:58:00.837Z,11.20
2022-11-12T16:04:21.640Z,11.00
2022-11-12T16:10:45.343Z,10.90
2022-11-12T16:17:09.946Z,10.80
2022-11-12T16:23:31.201Z,10.60
2022-11-12T16:29:52.209Z,10.50
2022-11-12T16:36:14.858Z,10.40
2022-11-12T16:42:36.059Z,10.20
2022-11-12T16:48:57.352Z,10.10
2022-11-12T16:55:17.969Z,10.00
2022-11-12T17:01:38.737Z,9.90
2022-11-12T17:07:59.834Z,9.80
2022-11-12T17:14:25.526Z,9.80
2022-11-12T17:20:51.374Z,9.70
2022-11-12T17:27:12.477Z,9.60
2022-11-12T17:33:37.732Z,9.50
2022-11-12T17:39:58.349Z,9.50
2022-11-12T17:46:19.147Z,9.40
2022-11-12T17:52:39.954Z,9.30
2022-11-12T17:59:02.375Z,9.20
2022-11-12T18:05:23.415Z,9.20
2022-11-12T18:11:54.490Z,9.10
2022-11-12T18:18:15.289Z,9.10
2022-11-12T18:24:36.456Z,9.00
2022-11-12T18:31:04.754Z,8.90
2022-11-12T18:37:25.686Z,8.90
2022-11-12T18:43:46.399Z,8.90
2022-11-12T18:50:08.975Z,8.80
2022-11-12T18:56:29.756Z,8.80
2022-11-12T19:02:51.057Z,8.70
2022-11-12T19:09:12.117Z,8.70
2022-11-12T19:15:34.454Z,8.60
2022-11-12T19:21:55.438Z,8.50
2022-11-12T19:28:16.437Z,8.40
2022-11-12T19:34:37.424Z,8.30
2022-11-12T19:41:17.759Z,8.30
2022-11-12T19:47:40.832Z,8.30
2022-11-12T19:54:02.296Z,8.30
2022-11-12T20:00:23.323Z,8.30
2022-11-12T20:06:44.148Z,8.20
2022-11-12T20:13:05.078Z,8.10
2022-11-12T20:19:26.999Z,8.10
2022-11-12T20:25:48.124Z,8.10
2022-11-12T20:32:08.939Z,8.10
2022-11-12T20:38:30.053Z,8.10
2022-11-12T20:44:51.329Z,8.00
2022-11-12T20:51:24.196Z,8.00
2022-11-12T20:57:45.654Z,7.90
2022-11-12T21:04:06.275Z,7.90
2022-11-12T21:10:27.333Z,7.80
2022-11-12T21:16:47.918Z,7.80
2022-11-12T21:23:09.156Z,7.80
2022-11-12T21:29:29.966Z,7.70
2022-11-12T21:35:54.120Z,7.70
2022-11-12T21:42:15.078Z,7.60
2022-11-12T21:48:36.015Z,7.60
2022-11-12T21:54:57.137Z,7.50
2022-11-12T22:01:23.441Z,7.50
2022-11-12T22:07:44.347Z,7.40
2022-11-12T22:14:05.340Z,7.40
2022-11-12T22:20:26.415Z,7.40
2022-11-12T22:26:47.455Z,7.30
2022-11-12T22:33:08.000Z,7.30
2022-11-12T22:39:28.925Z,7.20
2022-11-12T22:45:49.749Z,7.10
2022-11-12T22:52:10.498Z,7.10
2022-11-12T22:58:34.761Z,7.10
2022-11-12T23:04:55.600Z,7.00
2022-11-12T23:11:19.465Z,7.00
2022-11-12T23:17:40.168Z,7.00
2022-11-12T23:24:00.794Z,6.90
2022-11-12T23:30:26.350Z,6.90
2022-11-12T23:36:47.214Z,6.90
2022-11-12T23:43:08.104Z,6.90
2022-11-12T23:49:28.861Z,6.90
2022-11-12T23:55:49.810Z,6.90
